Flight Track Log - Related Links

Times and Time Zones

All times are in EDT time to prevent confusion due to time zone crossing. See the EJA162 flight status page for this flight to view local times or setup timezone preferences in your user account.

Time Position Orientation Groundspeed Altitude Reporting Facility
EDT Latitude Longitude Course Direction KTS MPH feet Rate Location/Type
Wed 10:12:42 AM 29.9681 -95.3453 341° North 157 181 1,000  Level Houston Center
Wed 10:14:19 AM 29.9844 -95.2636 77° East 274 315 4,000 1,170 Climbing Houston Center
Wed 10:15:21 AM 30.0483 -95.2903 340° North 275 316 4,100  Climbing Houston Center
Wed 10:16:23 AM 30.1264 -95.3486 327° Northwest 275 316 4,000 1,210 Descending Houston Center
Wed 10:17:25 AM 30.1925 -95.3967 328° Northwest 277 319 6,600 2,903 Climbing Houston Center
Wed 10:18:00 AM 30.6041 -95.6783 341° North  Level FlightAware Approximate
Wed 10:18:27 AM 30.2528 -95.4428 327° Northwest 286 329 10,000  Level Houston Center
Wed 10:19:29 AM 30.3444 -95.5092 328° Northwest 335 386 12,900 2,952 Climbing Houston Center
Wed 10:20:31 AM 30.4244 -95.5694 327° Northwest 343 395 16,100 2,688 Climbing Houston Center
Wed 10:21:34 AM 30.5006 -95.6267 327° Northwest 347 399 18,500 2,448 Climbing Houston Center
Wed 10:22:36 AM 30.5911 -95.6822 332° Northwest 362 417 21,200 2,613 Climbing Houston Center
Wed 10:23:38 AM 30.7086 -95.7447 335° Northwest 380 437 23,900 2,371 Climbing Houston Center
Wed 10:24:40 AM 30.8081 -95.7981 335° Northwest 389 448 26,100 1,452 Climbing Houston Center
Wed 10:25:42 AM 30.9161 -95.8567 335° Northwest 414 476 26,900 1,113 Climbing Houston Center
Wed 10:26:44 AM 31.0347 -95.9197 336° Northwest 454 522 28,400 2,208 Climbing Houston Center
Wed 10:27:47 AM 31.1517 -95.9778 337° Northwest 455 524 31,500 2,352 Climbing Houston Center
Wed 10:28:49 AM 31.2692 -96.0236 342° North 444 511 33,300 1,984 Climbing Houston Center
Wed 10:29:51 AM 31.4125 -96.0783 342° North 449 517 35,600 1,887 Climbing Houston Center
Wed 10:30:53 AM 31.5200 -96.1197 342° North 445 512 37,200 1,355 Climbing Houston Center
Wed 10:31:55 AM 31.6419 -96.1667 342° North 450 518 38,400 1,694 Climbing Houston Center
Wed 10:32:57 AM 31.7658 -96.2158 341° North 460 529 40,700 2,129 Climbing Houston Center
Wed 10:33:59 AM 31.9008 -96.2694 341° North 445 512 42,800 1,113 Climbing Houston Center
Wed 10:35:01 AM 32.0172 -96.3133 342° North 437 503 43,000 101 Climbing Houston Center
Wed 10:35:58 AM 32.1211 -96.3561 341° North 444 511 43,000  Level Fort Worth Center
Wed 10:36:58 AM 32.2306 -96.4336 329° Northwest 451 519 43,000  Level Fort Worth Center
Wed 10:37:58 AM 32.3231 -96.5358 317° Northwest 458 527 43,000  Level Fort Worth Center
Wed 10:38:58 AM 32.4156 -96.6431 316° Northwest 458 527 43,000  Level Fort Worth Center
Wed 10:39:58 AM 32.5081 -96.7458 317° Northwest 458 527 43,000  Level Fort Worth Center
Wed 10:40:58 AM 32.6025 -96.8536 316° Northwest 458 527 43,000  Level Fort Worth Center
Wed 10:41:58 AM 32.6947 -96.9567 317° Northwest 458 527 43,000  Level Fort Worth Center
Wed 10:42:58 AM 32.7892 -97.0625 317° Northwest 463 533 43,000  Level Fort Worth Center
Wed 10:43:58 AM 32.8894 -97.1783 316° Northwest 458 527 43,000  Level Fort Worth Center
Wed 10:44:58 AM 32.9794 -97.2872 315° West 463 533 43,000  Level Fort Worth Center
Wed 10:45:58 AM 33.0733 -97.4133 312° West 490 564 43,000  Level Fort Worth Center
Wed 10:46:58 AM 33.1569 -97.5200 313° West 481 554 43,000  Level Fort Worth Center
Wed 10:47:58 AM 33.2444 -97.6294 314° West 464 534 43,000  Level Fort Worth Center
Wed 10:48:58 AM 33.3297 -97.7392 313° West 458 527 43,000  Level Fort Worth Center
Wed 10:49:58 AM 33.4169 -97.8539 312° West 458 527 43,000  Level Fort Worth Center
Wed 10:50:58 AM 33.5064 -97.9664 314° West 458 527 43,000  Level Fort Worth Center
Wed 10:51:58 AM 33.5914 -98.0792 312° West 463 533 43,000  Level Fort Worth Center
Wed 10:52:58 AM 33.6889 -98.1747 321° Northwest 463 533 43,000  Level Fort Worth Center
Wed 10:53:58 AM 33.7906 -98.2733 321° Northwest 463 533 43,000  Level Fort Worth Center
Wed 10:54:58 AM 33.8942 -98.3644 324° Northwest 463 533 43,000  Level Fort Worth Center
Wed 10:55:58 AM 33.9936 -98.4631 321° Northwest 463 533 43,000  Level Fort Worth Center
Wed 10:56:57 AM 34.0972 -98.5597 322° Northwest 468 539 43,000  Level Fort Worth Center
Wed 10:57:58 AM 34.1819 -98.6461 320° Northwest 458 527 43,000  Level Fort Worth Center
Wed 10:58:57 AM 34.2831 -98.7406 322° Northwest 453 521 43,000  Level Fort Worth Center
Wed 10:59:58 AM 34.3925 -98.8456 322° Northwest 458 527 43,000  Level Fort Worth Center
Wed 11:00:58 AM 34.4833 -98.9303 322° Northwest 458 527 43,000  Level Fort Worth Center
Wed 11:01:58 AM 34.5883 -99.0331 321° Northwest 458 527 43,000  Level Fort Worth Center
Wed 11:02:58 AM 34.6894 -99.1258 323° Northwest 458 527 43,000  Level Fort Worth Center
Wed 11:03:58 AM 34.7883 -99.2214 322° Northwest 453 521 43,000  Level Fort Worth Center
Wed 11:04:58 AM 34.8869 -99.3144 322° Northwest 453 521 43,000  Level Fort Worth Center
Wed 11:05:58 AM 34.9836 -99.4106 321° Northwest 453 521 43,000  Level Fort Worth Center
Wed 11:06:58 AM 35.0761 -99.4889 325° Northwest 448 516 43,000  Level Fort Worth Center
Wed 11:07:30 AM 35.1281 -99.5422 320° Northwest 450 518 43,000  Level Albuquerque Center
Wed 11:08:32 AM 35.2256 -99.6372 321° Northwest 450 518 43,000  Level Albuquerque Center
Wed 11:10:11 AM 35.3783 -99.7875 321° Northwest 443 510 43,000  Level Albuquerque Center
Wed 11:11:13 AM 35.4958 -99.9028 321° Northwest 451 519 43,000  Level Albuquerque Center
Wed 11:12:15 AM 35.5928 -99.9978 321° Northwest 448 516 43,000  Level Albuquerque Center
Wed 11:13:17 AM 35.6881 -100.0928 321° Northwest 444 511 43,000  Level Albuquerque Center
Wed 11:14:19 AM 35.7858 -100.1892 321° Northwest 449 517 43,000  Level Albuquerque Center
Wed 11:15:21 AM 35.8822 -100.2850 321° Northwest 448 516 43,000  Level Albuquerque Center
Wed 11:16:23 AM 35.9964 -100.3981 321° Northwest 443 510 43,000  Level Albuquerque Center
Wed 11:17:25 AM 36.0906 -100.4936 321° Northwest 440 506 43,000  Level Albuquerque Center
Wed 11:18:27 AM 36.1844 -100.5872 321° Northwest 437 503 43,000  Level Albuquerque Center
Wed 11:19:29 AM 36.2858 -100.6906 321° Northwest 434 499 43,000  Level Albuquerque Center
Wed 11:20:31 AM 36.3767 -100.7819 321° Northwest 437 503 43,000  Level Albuquerque Center
Wed 11:21:33 AM 36.4819 -100.8883 321° Northwest 437 503 43,000  Level Albuquerque Center
Wed 11:22:35 AM 36.5719 -100.9803 321° Northwest 437 503 43,000  Level Albuquerque Center
Wed 11:23:38 AM 36.6772 -101.0881 321° Northwest 437 503 43,000  Level Albuquerque Center
Wed 11:24:40 AM 36.7667 -101.1806 320° Northwest 436 502 43,000  Level Albuquerque Center
Wed 11:25:42 AM 36.8556 -101.2728 320° Northwest 434 499 43,000  Level Albuquerque Center
Wed 11:26:44 AM 36.9597 -101.3806 320° Northwest 434 499 43,000  Level Albuquerque Center
Wed 11:27:46 AM 37.0503 -101.4736 321° Northwest 436 502 43,000  Level Albuquerque Center
Wed 11:28:48 AM 37.1550 -101.5836 320° Northwest 438 504 43,000  Level Albuquerque Center
Wed 11:29:19 AM 37.1997 -101.6297 321° Northwest 437 503 43,000  Level Denver Center
Wed 11:30:10 AM 37.2750 -101.7083 320° Northwest 439 505 43,000  Level Kansas City Center
Wed 11:31:14 AM 37.3786 -101.8172 320° Northwest 435 501 43,000  Level Kansas City Center
Wed 11:32:15 AM 37.4683 -101.9117 320° Northwest 436 502 43,000  Level Kansas City Center
Wed 11:33:18 AM 37.5728 -102.0208 320° Northwest 436 502 43,000  Level Kansas City Center
Wed 11:34:19 AM 37.6608 -102.1153 320° Northwest 435 501 43,000  Level Kansas City Center
Wed 11:35:23 AM 37.7594 -102.2322 317° Northwest 435 501 43,000 -528 Level Kansas City Center
Wed 11:36:24 AM 37.8336 -102.3406 311° West 429 494 41,900 -1,082 Descending Kansas City Center
Wed 11:37:25 AM 37.9081 -102.4483 311° West 425 489 40,800 -1,104 Descending Kansas City Center
Wed 11:38:29 AM 37.9972 -102.5767 311° West 432 497 39,600 -1,209 Descending Kansas City Center
Wed 11:39:39 AM 38.1000 -102.7247 311° West 437 503 38,100 -1,227 Descending Denver Center
Wed 11:40:41 AM 38.1781 -102.8375 311° West 442 509 36,900 -1,500 Descending Denver Center
Wed 11:41:43 AM 38.2567 -102.9503 312° West 444 511 35,000 -2,032 Descending Denver Center
Wed 11:42:45 AM 38.3494 -103.0847 311° West 452 520 32,700 -2,064 Descending Denver Center
Wed 11:43:48 AM 38.4281 -103.2050 310° West 460 529 30,700 -2,112 Descending Denver Center
Wed 11:44:50 AM 38.5253 -103.3444 312° West 469 540 28,300 -1,790 Descending Denver Center
Wed 11:45:52 AM 38.6050 -103.4639 311° West 467 537 27,000 -1,548 Descending Denver Center
Wed 11:46:54 AM 38.6978 -103.6017 311° West 460 529 25,100 -2,081 Descending Denver Center
Wed 11:47:56 AM 38.7761 -103.7169 311° West 452 520 22,700 -2,371 Descending Denver Center
Wed 11:48:58 AM 38.8581 -103.8408 310° West 408 470 20,200 -2,032 Descending Denver Center
Wed 11:50:00 AM 38.9194 -103.9336 310° West 379 436 18,500 -1,694 Descending Denver Center
Wed 11:51:02 AM 38.9953 -104.0475 311° West 355 409 16,700 -1,258 Descending Denver Center
Wed 11:52:04 AM 39.0347 -104.1394 299° West 331 381 15,900 -387 Descending Denver Center
Wed 11:53:06 AM 39.0633 -104.2692 286° West 334 384 15,900 -339 Level Denver Center
Wed 11:54:08 AM 39.0872 -104.3758 286° West 328 377 15,200 -484 Descending Denver Center
Wed 11:55:10 AM 39.1125 -104.4839 287° West 317 365 14,900 -1,016 Descending Denver Center
Wed 11:56:12 AM 39.1606 -104.5889 301° West 313 360 13,100 -1,161 Descending Denver Center
Wed 11:57:14 AM 39.2281 -104.6594 321° Northwest 293 337 12,500 -1,113 Descending Denver Center
Wed 11:58:16 AM 39.2919 -104.7019 333° Northwest 261 300 10,800 -1,597 Descending Denver Center
Wed 11:59:18 AM 39.3606 -104.7514 331° Northwest 281 323 9,200 -919 Descending Denver Center
Wed 12:00:20 PM 39.4225 -104.7683 348° North 277 319 8,900 -528 Descending Denver Center
Wed 12:01:23 PM 39.5053 -104.7675 360° North 236 272 8,100 -576 Descending Denver Center
Wed 12:02:25 PM 39.5758 -104.7681 360° North 234 269 7,700 -339 Descending Denver Center
Wed 12:03:27 PM 39.6283 -104.7728 356° North 177 204 7,400 -532 Descending Denver Center
Wed 12:04:29 PM 39.6322 -104.8281 275° West 147 169 6,600 -677 Descending Denver Center
Wed 12:05:31 PM 39.6033 -104.8536 214° Southwest 141 162 6,000 -387 Descending Denver Center
Wed 12:06:33 PM 39.5703 -104.8519 178° South 122 140 5,800 -194 Descending Denver Center

Login

Don't have an account? Register now (free) for customized features, flight alerts, and more!